createdAt,value
2017-09-19T00:00:01.135Z,28.92
2017-09-19T00:02:28.905Z,27.40
2017-09-19T00:04:57.446Z,31.48
2017-09-19T00:07:25.244Z,27.90
2017-09-19T00:09:53.791Z,30.70
2017-09-19T00:12:21.619Z,28.60
2017-09-19T00:14:49.379Z,29.67
2017-09-19T00:17:17.915Z,30.95
2017-09-19T00:19:45.715Z,33.83
2017-09-19T00:22:13.492Z,31.17
2017-09-19T00:24:41.325Z,30.10
2017-09-19T00:27:09.866Z,35.10
2017-09-19T00:29:37.637Z,36.35
2017-09-19T00:32:05.434Z,31.08
2017-09-19T00:34:33.196Z,28.92
2017-09-19T00:37:01.014Z,33.88
2017-09-19T00:39:28.791Z,32.15
2017-09-19T00:41:56.559Z,29.08
2017-09-19T00:44:25.119Z,35.83
2017-09-19T00:46:52.895Z,27.02
2017-09-19T00:49:20.719Z,28.67
2017-09-19T00:51:48.505Z,30.92
2017-09-19T00:54:16.266Z,31.20
2017-09-19T00:56:44.076Z,30.83
2017-09-19T00:59:11.861Z,30.65
2017-09-19T01:01:39.690Z,28.27
2017-09-19T01:04:08.226Z,31.52
2017-09-19T01:06:35.993Z,32.22
2017-09-19T01:09:03.806Z,30.52
2017-09-19T01:11:31.570Z,31.87
2017-09-19T01:13:59.400Z,30.40
2017-09-19T01:16:27.930Z,32.90
2017-09-19T01:18:55.713Z,31.92
2017-09-19T01:21:23.525Z,33.15
2017-09-19T01:23:52.050Z,30.83
2017-09-19T01:26:19.892Z,35.83
2017-09-19T01:28:47.648Z,37.78
2017-09-19T01:31:15.423Z,33.03
2017-09-19T01:33:43.215Z,35.30
2017-09-19T01:36:10.995Z,31.12
2017-09-19T01:38:38.813Z,29.35
2017-09-19T01:41:06.588Z,32.15
2017-09-19T01:43:34.349Z,34.75
2017-09-19T01:46:02.143Z,37.97
2017-09-19T01:48:30.675Z,33.60
2017-09-19T01:50:58.489Z,33.90
2017-09-19T01:53:26.251Z,33.25
2017-09-19T01:55:54.016Z,33.28
2017-09-19T01:58:22.570Z,38.55
2017-09-19T02:00:50.330Z,35.00
2017-09-19T02:03:18.143Z,33.33
2017-09-19T02:05:45.905Z,33.08
2017-09-19T02:08:13.663Z,37.20
2017-09-19T02:10:41.451Z,33.53
2017-09-19T02:13:09.207Z,33.72
2017-09-19T02:15:37.021Z,31.85
2017-09-19T02:18:04.770Z,35.33
2017-09-19T02:20:32.521Z,34.70
2017-09-19T02:23:00.302Z,38.35
2017-09-19T02:25:28.055Z,37.20
2017-09-19T02:27:56.223Z,35.03
2017-09-19T02:30:23.979Z,36.92
2017-09-19T02:32:51.731Z,33.72
2017-09-19T02:35:19.515Z,34.25
2017-09-19T02:37:47.265Z,38.00
2017-09-19T02:40:15.078Z,33.95
2017-09-19T02:42:42.853Z,37.17
2017-09-19T02:45:10.603Z,35.25
2017-09-19T02:47:38.385Z,38.67
2017-09-19T02:50:06.136Z,36.83
2017-09-19T02:52:33.939Z,33.10
2017-09-19T02:55:01.689Z,33.38
2017-09-19T02:57:29.444Z,32.67
2017-09-19T02:59:57.247Z,32.90
2017-09-19T03:02:25.783Z,35.63
2017-09-19T03:04:53.591Z,33.22
2017-09-19T03:07:22.106Z,34.25
2017-09-19T03:09:49.857Z,35.72
2017-09-19T03:12:17.643Z,35.08
2017-09-19T03:14:45.395Z,32.38
2017-09-19T03:17:13.202Z,33.53
2017-09-19T03:19:40.952Z,32.45
2017-09-19T03:22:08.699Z,32.53
2017-09-19T03:24:36.474Z,34.08
2017-09-19T03:27:04.223Z,33.95
2017-09-19T03:29:32.027Z,36.78
2017-09-19T03:32:00.539Z,33.80
2017-09-19T03:34:28.286Z,38.60
2017-09-19T03:36:56.066Z,39.67
2017-09-19T03:39:23.810Z,40.67
2017-09-19T03:41:51.622Z,41.60
2017-09-19T03:44:19.370Z,41.15
2017-09-19T03:46:47.459Z,41.08
2017-09-19T03:49:15.237Z,43.65
2017-09-19T03:51:42.986Z,46.30
2017-09-19T03:54:10.795Z,38.28
2017-09-19T03:56:38.538Z,40.80
2017-09-19T04:01:40.680Z,42.17
2017-09-19T04:04:08.436Z,44.55
2017-09-19T04:06:36.246Z,39.92
2017-09-19T04:09:04.041Z,42.88
2017-09-19T04:11:31.835Z,44.20
2017-09-19T04:13:59.607Z,44.33
2017-09-19T04:16:27.353Z,40.30
2017-09-19T04:18:55.258Z,41.92
2017-09-19T04:21:23.774Z,42.70
2017-09-19T04:23:51.527Z,41.70
2017-09-19T04:26:19.323Z,43.17
2017-09-19T04:28:47.085Z,47.90
2017-09-19T04:31:14.903Z,42.28
2017-09-19T04:33:42.668Z,38.60
2017-09-19T04:36:10.414Z,39.50
2017-09-19T04:38:38.196Z,42.28
2017-09-19T04:41:05.942Z,43.67
2017-09-19T04:43:34.510Z,40.63
2017-09-19T04:46:03.024Z,40.58
2017-09-19T04:48:30.771Z,40.78
2017-09-19T04:50:58.554Z,44.38
2017-09-19T04:53:26.307Z,42.20
2017-09-19T04:55:54.114Z,45.42
2017-09-19T04:58:21.875Z,46.45
2017-09-19T05:00:49.614Z,43.70
2017-09-19T05:03:17.401Z,49.50
2017-09-19T05:05:45.148Z,54.22
2017-09-19T05:08:12.969Z,49.53
2017-09-19T05:10:40.721Z,47.25
2017-09-19T05:13:08.519Z,39.33
2017-09-19T05:15:36.305Z,28.23
2017-09-19T05:18:04.079Z,23.95
2017-09-19T05:20:32.690Z,19.70
2017-09-19T05:23:00.460Z,26.00
2017-09-19T05:25:28.235Z,20.88
2017-09-19T05:27:56.044Z,23.17
2017-09-19T05:30:23.825Z,23.20
2017-09-19T05:32:51.677Z,22.02
2017-09-19T05:35:20.211Z,25.55
2017-09-19T05:40:30.039Z,19.37
2017-09-19T05:42:57.808Z,19.17
2017-09-19T05:45:25.639Z,19.12
2017-09-19T05:47:54.181Z,18.92
2017-09-19T05:50:21.955Z,21.70
2017-09-19T05:52:49.759Z,22.33
2017-09-19T05:55:17.528Z,21.98
2017-09-19T05:57:45.352Z,19.90
2017-09-19T06:00:13.125Z,17.85
2017-09-19T06:02:41.654Z,17.35
2017-09-19T06:05:09.467Z,16.40
2017-09-19T06:07:38.048Z,15.05
2017-09-19T06:10:06.625Z,16.73
2017-09-19T06:12:35.177Z,17.37
2017-09-19T06:15:03.286Z,15.88
2017-09-19T06:17:31.850Z,15.20
2017-09-19T06:19:59.683Z,14.18
2017-09-19T06:22:27.940Z,13.00
2017-09-19T06:24:58.862Z,16.35
2017-09-19T06:27:27.181Z,14.05
2017-09-19T06:29:56.128Z,12.13
2017-09-19T06:32:24.087Z,13.98
2017-09-19T06:34:54.229Z,12.35
2017-09-19T06:37:22.985Z,13.18
2017-09-19T06:39:50.840Z,14.95
2017-09-19T06:42:18.661Z,13.50
2017-09-19T06:44:46.440Z,17.40
2017-09-19T06:47:15.111Z,11.50
2017-09-19T06:49:42.919Z,12.60
2017-09-19T06:52:10.785Z,13.88
2017-09-19T06:54:38.661Z,13.85
2017-09-19T06:57:07.434Z,12.32
2017-09-19T06:59:35.351Z,14.25
2017-09-19T07:02:04.957Z,11.55
2017-09-19T07:04:33.555Z,11.10
2017-09-19T07:07:01.813Z,13.77
2017-09-19T07:09:29.595Z,13.50
2017-09-19T07:11:58.208Z,10.63
2017-09-19T07:14:26.066Z,9.45
2017-09-19T07:16:53.984Z,11.63
2017-09-19T07:19:21.803Z,10.10
2017-09-19T07:21:49.612Z,12.32
2017-09-19T07:24:17.417Z,9.32
2017-09-19T07:26:45.224Z,10.80
2017-09-19T07:29:17.466Z,12.57
2017-09-19T07:31:45.774Z,10.20
2017-09-19T07:34:14.253Z,11.90
2017-09-19T07:36:42.827Z,10.55
2017-09-19T07:39:11.004Z,15.48
2017-09-19T07:41:39.793Z,10.63
2017-09-19T07:44:07.580Z,10.93
2017-09-19T07:46:36.216Z,9.93
2017-09-19T07:49:04.045Z,10.75
2017-09-19T07:54:04.232Z,11.48
2017-09-19T07:56:32.044Z,11.50
2017-09-19T07:58:59.904Z,9.35
2017-09-19T08:01:27.684Z,10.95
2017-09-19T08:03:55.460Z,12.32
2017-09-19T08:06:23.268Z,10.85
2017-09-19T08:08:51.821Z,10.70
2017-09-19T08:11:19.659Z,13.95
2017-09-19T08:13:47.468Z,11.45
2017-09-19T08:16:16.032Z,11.20
2017-09-19T08:18:48.283Z,10.65
2017-09-19T08:21:17.287Z,15.23
2017-09-19T08:23:45.159Z,10.90
2017-09-19T08:26:13.730Z,13.45
2017-09-19T08:28:41.504Z,10.38
2017-09-19T08:31:09.380Z,10.77
2017-09-19T08:36:09.207Z,10.93
2017-09-19T08:38:37.756Z,11.43
2017-09-19T08:41:05.542Z,11.10
2017-09-19T08:43:34.132Z,10.88
2017-09-19T08:46:02.677Z,11.63
2017-09-19T08:48:30.504Z,10.18
2017-09-19T08:50:58.296Z,11.77
2017-09-19T08:53:26.065Z,11.20
2017-09-19T08:55:53.860Z,13.55
2017-09-19T08:58:22.400Z,14.02
2017-09-19T09:00:50.239Z,11.12
2017-09-19T09:03:18.008Z,11.82
2017-09-19T09:05:45.784Z,11.38
2017-09-19T09:08:13.579Z,13.27
2017-09-19T09:10:41.356Z,11.35
2017-09-19T09:13:09.953Z,12.55
2017-09-19T09:15:37.723Z,11.30
2017-09-19T09:18:05.501Z,15.13
2017-09-19T09:20:33.307Z,12.68
2017-09-19T09:23:01.101Z,12.35
2017-09-19T09:25:28.938Z,9.35
2017-09-19T09:27:57.472Z,10.02
2017-09-19T09:30:25.240Z,9.98
2017-09-19T09:32:53.036Z,10.30
2017-09-19T09:35:20.810Z,10.07
2017-09-19T09:37:49.412Z,12.50
2017-09-19T09:40:17.177Z,9.10
2017-09-19T09:42:44.968Z,9.73
2017-09-19T09:45:12.768Z,9.20
2017-09-19T09:47:40.533Z,11.75
2017-09-19T09:50:08.360Z,9.23
2017-09-19T09:52:36.123Z,10.90
2017-09-19T09:55:03.892Z,9.57
2017-09-19T09:57:31.714Z,9.98
2017-09-19T09:59:59.476Z,8.48
2017-09-19T10:02:27.298Z,8.45
2017-09-19T10:04:55.059Z,8.60
2017-09-19T10:07:22.832Z,12.37
2017-09-19T10:09:50.627Z,8.88
2017-09-19T10:12:18.393Z,9.23
2017-09-19T10:14:46.220Z,8.73
2017-09-19T10:17:14.755Z,9.35
2017-09-19T10:19:42.518Z,8.65
2017-09-19T10:22:10.312Z,9.15
2017-09-19T10:24:38.080Z,8.32
2017-09-19T10:27:06.674Z,9.27
2017-09-19T10:29:35.217Z,11.45
2017-09-19T10:32:02.991Z,10.77
2017-09-19T10:34:30.805Z,11.32
2017-09-19T10:36:58.572Z,9.02
2017-09-19T10:39:26.398Z,11.98
2017-09-19T10:41:54.935Z,10.27
2017-09-19T10:44:22.700Z,10.13
2017-09-19T10:46:50.502Z,9.60
2017-09-19T10:49:18.266Z,9.65
2017-09-19T10:51:46.863Z,9.95
2017-09-19T10:54:14.990Z,10.05
2017-09-19T10:56:42.759Z,12.40
2017-09-19T10:59:10.555Z,11.88
2017-09-19T11:01:38.325Z,12.25
2017-09-19T11:04:06.154Z,10.23
2017-09-19T11:06:33.941Z,11.65
2017-09-19T11:09:01.712Z,11.05
2017-09-19T11:11:29.511Z,13.48
2017-09-19T11:13:57.317Z,11.05
2017-09-19T11:16:25.917Z,11.85
2017-09-19T11:18:53.691Z,12.27
2017-09-19T11:21:21.465Z,11.85
2017-09-19T11:23:49.263Z,11.38
2017-09-19T11:26:17.030Z,12.02
2017-09-19T11:28:44.853Z,9.82
2017-09-19T11:31:12.623Z,9.40
2017-09-19T11:33:40.392Z,9.07
2017-09-19T11:36:08.191Z,10.63
2017-09-19T11:38:36.725Z,9.80
2017-09-19T11:41:05.374Z,10.57
2017-09-19T11:43:33.135Z,11.07
2017-09-19T11:46:00.900Z,7.93
2017-09-19T11:48:28.698Z,9.50
2017-09-19T11:50:56.472Z,10.43
2017-09-19T11:53:24.308Z,7.87
2017-09-19T11:55:52.071Z,6.10
2017-09-19T11:58:19.826Z,5.28
2017-09-19T12:00:47.617Z,5.65
2017-09-19T12:03:15.383Z,5.22
2017-09-19T12:05:43.210Z,10.70
2017-09-19T12:08:10.978Z,6.62
2017-09-19T12:10:38.744Z,6.60
2017-09-19T12:13:06.543Z,8.30
2017-09-19T12:15:34.324Z,5.80
2017-09-19T12:18:02.921Z,7.20
2017-09-19T12:20:30.694Z,7.47
2017-09-19T12:22:58.467Z,6.07
2017-09-19T12:25:26.292Z,5.70
2017-09-19T12:27:54.818Z,8.05
2017-09-19T12:30:22.590Z,5.53
2017-09-19T12:32:50.387Z,6.72
2017-09-19T12:35:18.914Z,5.55
2017-09-19T12:37:46.696Z,6.45
2017-09-19T12:40:14.495Z,5.70
2017-09-19T12:42:42.272Z,8.65
2017-09-19T12:45:10.042Z,5.70
2017-09-19T12:47:37.839Z,5.25
2017-09-19T12:50:05.606Z,5.70
2017-09-19T12:52:33.371Z,5.40
2017-09-19T12:55:01.168Z,5.93
2017-09-19T12:57:29.704Z,4.37
2017-09-19T12:59:57.477Z,4.90
2017-09-19T13:02:25.279Z,4.35
2017-09-19T13:04:53.823Z,5.55
2017-09-19T13:07:21.584Z,4.53
2017-09-19T13:09:49.377Z,7.07
2017-09-19T13:12:17.916Z,4.43
2017-09-19T13:14:45.689Z,5.90
2017-09-19T13:17:13.481Z,4.75
2017-09-19T13:19:42.014Z,5.65
2017-09-19T13:22:09.822Z,5.47
2017-09-19T13:24:38.395Z,7.35
2017-09-19T13:27:06.917Z,6.60
2017-09-19T13:29:34.708Z,7.28
2017-09-19T13:32:14.404Z,6.45
2017-09-19T13:34:42.208Z,6.10
2017-09-19T13:37:09.976Z,5.35
2017-09-19T13:39:37.790Z,9.80
2017-09-19T13:42:05.593Z,4.70
2017-09-19T13:44:33.394Z,4.57
2017-09-19T13:47:01.951Z,5.15
2017-09-19T13:49:29.718Z,4.85
2017-09-19T13:51:57.540Z,4.05
2017-09-19T13:54:25.321Z,5.45
2017-09-19T13:56:53.082Z,4.18
2017-09-19T13:59:20.898Z,7.32
2017-09-19T14:01:48.677Z,3.60
2017-09-19T14:04:16.492Z,4.03
2017-09-19T14:06:44.264Z,2.92
2017-09-19T14:09:12.028Z,3.50
2017-09-19T14:11:40.597Z,3.10
2017-09-19T14:14:08.365Z,4.20
2017-09-19T14:16:36.188Z,3.67
2017-09-19T14:19:03.946Z,5.15
2017-09-19T14:21:31.747Z,3.85
2017-09-19T14:24:00.446Z,2.97
2017-09-19T14:26:28.994Z,3.40
2017-09-19T14:28:56.823Z,3.60
2017-09-19T14:31:24.611Z,3.70
2017-09-19T14:33:52.383Z,3.58
2017-09-19T14:36:20.180Z,2.53
2017-09-19T14:38:48.715Z,2.30
2017-09-19T14:41:16.535Z,2.92
2017-09-19T14:43:44.323Z,2.00
2017-09-19T14:46:12.091Z,2.47
2017-09-19T14:48:39.892Z,6.57
2017-09-19T14:51:07.664Z,2.15
2017-09-19T14:53:36.253Z,3.08
2017-09-19T14:56:04.792Z,2.90
2017-09-19T14:58:32.565Z,15.30
2017-09-19T15:01:00.364Z,3.35
2017-09-19T15:03:28.906Z,4.85
2017-09-19T15:05:56.732Z,4.45
2017-09-19T15:08:25.270Z,2.97
2017-09-19T15:10:53.816Z,3.42
2017-09-19T15:13:21.624Z,2.87
2017-09-19T15:15:49.406Z,3.70
2017-09-19T15:18:17.231Z,3.10
2017-09-19T15:20:44.998Z,3.10
2017-09-19T15:23:13.543Z,4.12
2017-09-19T15:25:41.338Z,3.25
2017-09-19T15:28:09.102Z,3.80
2017-09-19T15:30:37.695Z,3.80
2017-09-19T15:33:06.251Z,3.25
2017-09-19T15:35:34.022Z,4.95
2017-09-19T15:38:02.589Z,9.40
2017-09-19T15:40:30.369Z,3.83
2017-09-19T15:42:58.959Z,4.07
2017-09-19T15:45:27.515Z,4.00
2017-09-19T15:47:55.310Z,4.07
2017-09-19T15:50:23.120Z,3.95
2017-09-19T15:52:50.902Z,3.75
2017-09-19T15:55:18.730Z,4.35
2017-09-19T15:57:47.280Z,4.22
2017-09-19T16:00:15.070Z,3.37
2017-09-19T16:02:42.888Z,5.68
2017-09-19T16:05:11.420Z,3.62
2017-09-19T16:07:39.244Z,4.28
2017-09-19T16:10:07.785Z,4.07
2017-09-19T16:12:35.543Z,3.55
2017-09-19T16:15:03.362Z,3.95
2017-09-19T16:17:31.140Z,9.02
2017-09-19T16:19:58.969Z,4.45
2017-09-19T16:22:27.517Z,4.07
2017-09-19T16:24:55.300Z,5.97
2017-09-19T16:27:23.879Z,4.53
2017-09-19T16:29:52.413Z,4.55
2017-09-19T16:32:20.248Z,5.32
2017-09-19T16:34:48.027Z,5.18
2017-09-19T16:37:15.832Z,4.93
2017-09-19T16:39:43.634Z,4.78
2017-09-19T16:42:11.414Z,4.62
2017-09-19T16:44:39.234Z,5.35
2017-09-19T16:47:07.784Z,5.05
2017-09-19T16:49:35.559Z,5.22
2017-09-19T16:52:03.371Z,4.95
2017-09-19T16:54:31.141Z,9.27
2017-09-19T16:56:58.974Z,6.05
2017-09-19T16:59:27.524Z,5.60
2017-09-19T17:01:55.286Z,8.93
2017-09-19T17:04:23.086Z,5.10
2017-09-19T17:06:50.862Z,7.07
2017-09-19T17:09:18.735Z,7.10
2017-09-19T17:11:47.265Z,6.10
2017-09-19T17:14:15.040Z,8.52
2017-09-19T17:16:43.613Z,8.02
2017-09-19T17:19:12.151Z,8.77
2017-09-19T17:21:39.989Z,8.65
2017-09-19T17:24:07.773Z,9.60
2017-09-19T17:26:35.575Z,8.70
2017-09-19T17:29:03.406Z,10.55
2017-09-19T17:31:31.207Z,10.55
2017-09-19T17:33:59.824Z,14.63
2017-09-19T17:36:27.607Z,10.35
2017-09-19T17:38:55.374Z,10.20
2017-09-19T17:41:23.181Z,15.20
2017-09-19T17:43:51.728Z,12.25
2017-09-19T17:46:19.562Z,10.32
2017-09-19T17:48:47.342Z,12.60
2017-09-19T17:51:15.122Z,13.20
2017-09-19T17:53:42.935Z,13.35
2017-09-19T17:56:10.709Z,10.68
2017-09-19T17:58:39.331Z,13.10
2017-09-19T18:01:07.120Z,11.30
2017-09-19T18:03:35.670Z,10.90
2017-09-19T18:06:03.517Z,13.15
2017-09-19T18:08:31.301Z,12.10
2017-09-19T18:10:59.117Z,10.93
2017-09-19T18:13:26.895Z,10.85
2017-09-19T18:15:54.735Z,14.82
2017-09-19T18:18:22.568Z,12.05
2017-09-19T18:20:51.117Z,13.32
2017-09-19T18:23:18.945Z,13.27
2017-09-19T18:25:46.750Z,11.90
2017-09-19T18:28:14.628Z,16.20
2017-09-19T18:30:42.415Z,16.75
2017-09-19T18:33:10.220Z,15.73
2017-09-19T18:35:38.069Z,19.50
2017-09-19T18:38:05.853Z,17.83
2017-09-19T18:40:33.697Z,17.55
2017-09-19T18:43:01.544Z,19.05
2017-09-19T18:45:29.327Z,18.48
2017-09-19T18:47:57.164Z,18.02
2017-09-19T18:50:24.939Z,18.62
2017-09-19T18:52:52.789Z,23.60
2017-09-19T18:55:20.572Z,18.55
2017-09-19T18:57:48.350Z,38.33
2017-09-19T19:00:16.183Z,71.70
2017-09-19T19:02:43.994Z,123.40
2017-09-19T19:05:11.882Z,255.45
2017-09-19T19:07:39.677Z,87.32
2017-09-19T19:10:07.495Z,107.53
2017-09-19T19:12:35.323Z,128.52
2017-09-19T19:15:03.109Z,73.62
2017-09-19T19:17:30.944Z,52.13
2017-09-19T19:19:58.749Z,66.37
2017-09-19T19:22:26.536Z,47.15
2017-09-19T19:24:54.366Z,34.33
2017-09-19T19:27:22.162Z,35.83
2017-09-19T19:29:50.024Z,34.63
2017-09-19T19:32:17.830Z,38.05
2017-09-19T19:34:45.619Z,35.83
2017-09-19T19:37:13.455Z,36.63
2017-09-19T19:39:41.289Z,31.95
2017-09-19T19:42:09.237Z,34.60
2017-09-19T19:44:37.791Z,35.08
2017-09-19T19:47:05.596Z,37.25
2017-09-19T19:49:33.426Z,31.80
2017-09-19T19:52:01.981Z,40.12
2017-09-19T19:54:29.845Z,34.35
2017-09-19T19:56:57.620Z,31.98
2017-09-19T19:59:25.395Z,36.03
2017-09-19T20:01:54.025Z,39.72
2017-09-19T20:04:21.808Z,35.47
2017-09-19T20:06:49.665Z,36.80
2017-09-19T20:09:17.493Z,34.95
2017-09-19T20:11:45.288Z,36.15
2017-09-19T20:14:13.096Z,37.42
2017-09-19T20:16:41.657Z,32.85
2017-09-19T20:19:09.498Z,38.95
2017-09-19T20:21:37.265Z,37.47
2017-09-19T20:24:05.029Z,39.40
2017-09-19T20:26:32.836Z,32.45
2017-09-19T20:29:01.391Z,31.85
2017-09-19T20:31:29.814Z,28.15
2017-09-19T20:33:57.595Z,30.62
2017-09-19T20:36:25.378Z,33.28
2017-09-19T20:38:53.201Z,29.33
2017-09-19T20:41:20.987Z,34.67
2017-09-19T20:43:49.643Z,30.48
2017-09-19T20:46:17.423Z,34.60
2017-09-19T20:48:45.217Z,30.42
2017-09-19T20:51:13.033Z,29.73
2017-09-19T20:53:40.806Z,35.47
2017-09-19T20:56:08.674Z,26.80
2017-09-19T20:58:36.456Z,25.40
2017-09-19T21:01:04.221Z,26.00
2017-09-19T21:03:37.618Z,26.08
2017-09-19T21:06:10.976Z,22.87
2017-09-19T21:08:44.480Z,26.55
2017-09-19T21:11:17.858Z,29.67
2017-09-19T21:13:51.409Z,23.45
2017-09-19T21:16:24.732Z,24.92
2017-09-19T21:18:58.082Z,24.48
2017-09-19T21:21:25.873Z,25.10
2017-09-19T21:23:54.486Z,22.25
2017-09-19T21:26:22.269Z,31.62
2017-09-19T21:28:50.045Z,61.25
2017-09-19T21:31:17.885Z,41.80
2017-09-19T21:33:45.668Z,34.65
2017-09-19T21:36:13.499Z,31.77
2017-09-19T21:38:41.281Z,34.63
2017-09-19T21:41:09.080Z,30.90
2017-09-19T21:43:37.663Z,30.25
2017-09-19T21:46:06.214Z,28.87
2017-09-19T21:48:34.052Z,39.00
2017-09-19T21:51:01.835Z,68.65
2017-09-19T21:53:29.623Z,41.03
2017-09-19T21:55:57.433Z,33.30
2017-09-19T21:58:25.199Z,21.27
2017-09-19T22:00:53.041Z,26.80
2017-09-19T22:03:21.595Z,32.85
2017-09-19T22:05:50.150Z,24.60
2017-09-19T22:08:17.951Z,24.08
2017-09-19T22:10:46.502Z,44.65
2017-09-19T22:13:14.347Z,33.25
2017-09-19T22:15:42.133Z,38.92
2017-09-19T22:18:09.912Z,30.10
2017-09-19T22:20:38.525Z,29.85
2017-09-19T22:23:06.335Z,29.30
2017-09-19T22:25:34.163Z,26.10
2017-09-19T22:28:01.942Z,26.62
2017-09-19T22:30:29.717Z,24.37
2017-09-19T22:32:57.539Z,31.73
2017-09-19T22:35:25.335Z,24.98
2017-09-19T22:37:53.162Z,25.20
2017-09-19T22:40:20.936Z,35.00
2017-09-19T22:42:48.713Z,29.92
2017-09-19T22:45:16.522Z,27.85
2017-09-19T22:47:45.067Z,28.52
2017-09-19T22:50:12.891Z,25.98
2017-09-19T22:52:40.711Z,29.77
2017-09-19T22:55:08.483Z,37.60
2017-09-19T22:57:36.284Z,35.28
2017-09-19T23:00:04.072Z,76.20
2017-09-19T23:02:31.907Z,78.72
2017-09-19T23:05:00.459Z,101.78
2017-09-19T23:07:28.224Z,63.87
2017-09-19T23:09:56.820Z,73.70
2017-09-19T23:12:24.591Z,49.47
2017-09-19T23:14:52.458Z,168.73
2017-09-19T23:17:20.249Z,53.60
2017-09-19T23:19:48.017Z,49.72
2017-09-19T23:22:15.820Z,32.58
2017-09-19T23:24:44.377Z,35.40
2017-09-19T23:27:12.225Z,37.95
2017-09-19T23:29:40.003Z,55.42
2017-09-19T23:32:08.543Z,72.62
2017-09-19T23:34:36.425Z,70.65
2017-09-19T23:37:04.203Z,118.47
2017-09-19T23:39:32.026Z,38.35
2017-09-19T23:41:59.797Z,36.15
2017-09-19T23:44:27.586Z,40.97
2017-09-19T23:46:55.379Z,35.88
2017-09-19T23:49:23.911Z,36.83
2017-09-19T23:51:51.738Z,70.28
2017-09-19T23:54:19.515Z,38.30
2017-09-19T23:56:47.279Z,35.60
2017-09-19T23:59:15.101Z,37.58
